Allen Jay, North Carolina
Current Conditions -  °F | °C
As of 12:54 AM on Saturday 20 Dec 2014 (Local Time) from KGSO Reporting Station
Broken Clouds Broken Clouds  
Wind Chill:   Ceiling: 25000
Heat Index:   Visibility: 10mi
Dew Point: -3°   Wind: 3mph
Humidity: 58%   Direction: 60°ENE
Pressure: 30.2"   Gusts: NA
Location:  35.9136°N, 79.9465°W
Report Text: KGSO 200554Z 06003KT 10SM BKN250 04/M03 A3020 RMK AO2 SLP227 T00441033 10072 20039 53008
Loading
Personal Weather Stations






























Interactive Weather Map New forecast layout! Learn more

10-Day Weather Forecast

Advertisements
Track Severe Weather on mobile